createdAt,value
2023-04-18T00:02:26.116Z,11.90
2023-04-18T00:05:40.375Z,11.64
2023-04-18T00:08:52.743Z,11.57
2023-04-18T00:12:05.604Z,11.49
2023-04-18T00:15:18.566Z,11.44
2023-04-18T00:18:31.560Z,11.41
2023-04-18T00:21:45.146Z,11.49
2023-04-18T00:24:57.906Z,11.52
2023-04-18T00:28:10.411Z,11.48
2023-04-18T00:31:23.144Z,11.66
2023-04-18T00:34:36.280Z,11.62
2023-04-18T00:37:48.905Z,11.81
2023-04-18T00:41:01.418Z,11.75
2023-04-18T00:44:14.515Z,11.68
2023-04-18T00:47:27.171Z,11.87
2023-04-18T00:50:41.681Z,11.88
2023-04-18T00:53:54.431Z,11.96
2023-04-18T00:57:07.960Z,11.86
2023-04-18T01:00:20.491Z,11.82
2023-04-18T01:03:34.755Z,11.87
2023-04-18T01:06:47.348Z,11.85
2023-04-18T01:10:00.630Z,11.90
2023-04-18T01:13:17.318Z,11.72
2023-04-18T01:16:32.830Z,11.84
2023-04-18T01:19:46.888Z,11.86
2023-04-18T01:22:59.494Z,11.98
2023-04-18T01:26:11.823Z,11.99
2023-04-18T01:29:25.335Z,11.88
2023-04-18T01:32:37.768Z,11.83
2023-04-18T01:35:51.676Z,11.85
2023-04-18T01:39:04.050Z,11.81
2023-04-18T01:42:16.663Z,11.98
2023-04-18T01:45:29.700Z,12.03
2023-04-18T01:48:42.770Z,11.70
2023-04-18T01:51:55.140Z,11.77
2023-04-18T01:55:08.227Z,11.83
2023-04-18T01:58:23.719Z,11.92
2023-04-18T02:01:36.458Z,11.97
2023-04-18T02:04:49.097Z,11.95
2023-04-18T02:08:01.515Z,11.63
2023-04-18T02:11:14.215Z,11.86
2023-04-18T02:14:27.245Z,11.66
2023-04-18T02:17:41.647Z,11.74
2023-04-18T02:20:54.320Z,11.85
2023-04-18T02:24:07.591Z,11.62
2023-04-18T02:27:19.956Z,11.65
2023-04-18T02:30:35.569Z,11.99
2023-04-18T02:33:48.182Z,11.73
2023-04-18T02:37:00.787Z,11.92
2023-04-18T02:40:13.263Z,11.91
2023-04-18T02:43:25.874Z,11.66
2023-04-18T02:46:38.483Z,11.69
2023-04-18T02:49:51.896Z,11.70
2023-04-18T02:53:04.470Z,11.95
2023-04-18T02:56:17.466Z,11.80
2023-04-18T02:59:32.138Z,11.65
2023-04-18T03:02:46.044Z,11.68
2023-04-18T03:06:00.360Z,11.60
2023-04-18T03:09:13.525Z,11.62
2023-04-18T03:12:26.714Z,11.58
2023-04-18T03:15:39.483Z,11.49
2023-04-18T03:18:52.270Z,11.63
2023-04-18T03:22:06.088Z,11.56
2023-04-18T03:25:18.969Z,11.71
2023-04-18T03:28:32.023Z,11.72
2023-04-18T03:31:44.473Z,11.55
2023-04-18T03:34:57.322Z,11.65
2023-04-18T03:38:09.719Z,11.67
2023-04-18T03:41:23.816Z,11.77
2023-04-18T03:44:36.217Z,11.79
2023-04-18T03:47:49.013Z,11.74
2023-04-18T03:51:02.256Z,11.75
2023-04-18T03:54:16.890Z,11.80
2023-04-18T03:57:29.485Z,11.91
2023-04-18T04:00:43.116Z,12.08
2023-04-18T04:03:56.123Z,11.83
2023-04-18T04:07:08.801Z,12.04
2023-04-18T04:10:21.850Z,12.00
2023-04-18T04:13:34.445Z,12.22
2023-04-18T04:16:47.893Z,12.18
2023-04-18T04:20:00.996Z,12.35
2023-04-18T04:23:15.417Z,12.15
2023-04-18T04:26:30.776Z,12.23
2023-04-18T04:29:44.321Z,12.11
2023-04-18T04:32:58.283Z,11.77
2023-04-18T04:36:11.085Z,12.16
2023-04-18T04:39:23.577Z,12.13
2023-04-18T04:42:37.639Z,12.08
2023-04-18T04:45:53.160Z,12.10
2023-04-18T04:49:08.085Z,12.30
2023-04-18T04:52:20.549Z,12.16
2023-04-18T04:55:33.672Z,12.34
2023-04-18T04:58:47.250Z,12.26
2023-04-18T05:02:00.328Z,12.32
2023-04-18T05:05:12.808Z,12.31
2023-04-18T05:08:26.247Z,12.34
2023-04-18T05:11:38.565Z,12.39
2023-04-18T05:14:51.254Z,12.39
2023-04-18T05:18:03.786Z,12.42
2023-04-18T05:21:16.434Z,12.42
2023-04-18T05:24:29.063Z,12.57
2023-04-18T05:27:43.091Z,12.61
2023-04-18T05:31:01.565Z,12.75
2023-04-18T05:34:15.901Z,12.58
2023-04-18T05:37:28.561Z,12.79
2023-04-18T05:40:42.503Z,12.82
2023-04-18T05:44:04.832Z,12.96
2023-04-18T05:47:19.879Z,13.00
2023-04-18T05:50:33.376Z,13.07
2023-04-18T05:53:47.599Z,13.07
2023-04-18T05:57:00.910Z,12.71
2023-04-18T06:00:17.220Z,13.06
2023-04-18T06:03:31.120Z,13.33
2023-04-18T06:06:43.618Z,13.25
2023-04-18T06:09:56.697Z,13.46
2023-04-18T06:13:09.070Z,13.46
2023-04-18T06:16:22.322Z,13.52
2023-04-18T06:19:34.713Z,13.47
2023-04-18T06:22:47.383Z,13.60
2023-04-18T06:25:59.742Z,13.43
2023-04-18T06:29:12.440Z,13.72
2023-04-18T06:32:24.844Z,13.70
2023-04-18T06:35:37.544Z,13.83
2023-04-18T06:38:49.936Z,13.79
2023-04-18T06:42:04.745Z,13.88
2023-04-18T06:45:17.329Z,14.10
2023-04-18T06:48:29.991Z,14.14
2023-04-18T06:51:42.337Z,14.37
2023-04-18T06:54:55.011Z,14.43
2023-04-18T06:58:08.532Z,14.73
2023-04-18T07:01:21.311Z,14.95
2023-04-18T07:04:34.058Z,15.01
2023-04-18T07:07:46.811Z,15.04
2023-04-18T07:10:59.189Z,15.21
2023-04-18T07:14:12.351Z,15.26
2023-04-18T07:17:24.879Z,15.53
2023-04-18T07:20:37.687Z,15.73
2023-04-18T07:23:50.050Z,16.18
2023-04-18T07:27:03.307Z,16.42
2023-04-18T07:30:15.880Z,16.42
2023-04-18T07:33:31.828Z,16.54
2023-04-18T07:36:44.213Z,16.62
2023-04-18T07:39:56.881Z,16.70
2023-04-18T07:43:09.260Z,16.89
2023-04-18T07:46:24.898Z,16.66
2023-04-18T07:49:38.500Z,16.69
2023-04-18T07:52:51.239Z,17.08
2023-04-18T07:56:03.641Z,17.41
2023-04-18T07:59:16.794Z,17.25
2023-04-18T08:02:29.503Z,16.95
2023-04-18T08:05:42.826Z,16.46
2023-04-18T08:08:55.583Z,16.88
2023-04-18T08:12:08.296Z,16.87
2023-04-18T08:15:20.718Z,16.78
2023-04-18T08:18:33.341Z,16.74
2023-04-18T08:21:45.773Z,16.69
2023-04-18T08:25:05.065Z,16.69
2023-04-18T08:28:18.053Z,16.85
2023-04-18T08:31:31.743Z,16.76
2023-04-18T08:34:44.392Z,16.75
2023-04-18T08:37:57.032Z,16.89
2023-04-18T08:41:09.890Z,16.98
2023-04-18T08:44:22.946Z,16.91
2023-04-18T08:47:35.691Z,17.20
2023-04-18T08:50:48.457Z,17.27
2023-04-18T08:54:04.732Z,17.35
2023-04-18T08:57:18.371Z,17.47
2023-04-18T09:00:33.462Z,17.63
2023-04-18T09:03:46.165Z,17.97
2023-04-18T09:06:59.082Z,18.08
2023-04-18T09:10:12.691Z,17.86
2023-04-18T09:13:40.299Z,18.44
2023-04-18T09:16:53.400Z,18.83
2023-04-18T09:20:06.566Z,18.79
2023-04-18T09:23:23.473Z,18.24
2023-04-18T09:26:36.486Z,18.30
2023-04-18T09:29:51.920Z,18.52
2023-04-18T09:33:05.752Z,18.41
2023-04-18T09:36:29.067Z,18.91
2023-04-18T09:39:43.035Z,19.10
2023-04-18T09:42:55.994Z,19.01
2023-04-18T09:46:08.887Z,18.95
2023-04-18T09:49:22.238Z,19.00
2023-04-18T09:52:36.082Z,19.10
2023-04-18T09:55:57.681Z,19.09
2023-04-18T09:59:11.715Z,19.47
2023-04-18T10:02:24.658Z,19.69
2023-04-18T10:05:39.618Z,19.89
2023-04-18T10:08:53.127Z,19.88
2023-04-18T10:12:05.924Z,20.10
2023-04-18T10:15:18.446Z,19.78
2023-04-18T10:18:31.194Z,19.73
2023-04-18T10:21:54.528Z,19.50
2023-04-18T10:25:07.655Z,19.40
2023-04-18T10:28:21.341Z,19.63
2023-04-18T10:31:38.780Z,19.67
2023-04-18T10:34:53.893Z,19.66
2023-04-18T10:38:06.571Z,20.06
2023-04-18T10:41:29.292Z,19.78
2023-04-18T10:44:41.976Z,19.85
2023-04-18T11:04:14.137Z,20.41
2023-04-18T11:07:37.836Z,20.35
2023-04-18T11:11:04.234Z,20.17
2023-04-18T11:14:17.266Z,20.25
2023-04-18T11:17:34.929Z,20.40
2023-04-18T11:20:51.198Z,20.34
2023-04-18T11:24:03.571Z,20.30
2023-04-18T11:27:16.291Z,20.02
2023-04-18T11:30:31.407Z,20.58
2023-04-18T11:33:47.316Z,20.32
2023-04-18T11:36:59.757Z,20.18
2023-04-18T11:40:13.440Z,20.38
2023-04-18T11:43:25.956Z,20.49
2023-04-18T11:46:39.794Z,20.29
2023-04-18T11:50:02.167Z,20.85
2023-04-18T11:53:14.805Z,20.94
2023-04-18T11:56:27.196Z,20.95
2023-04-18T11:59:39.907Z,20.71
2023-04-18T12:02:52.444Z,20.70
2023-04-18T12:06:05.594Z,20.81
2023-04-18T12:09:21.352Z,20.84
2023-04-18T12:12:34.332Z,20.71
2023-04-18T12:15:46.907Z,21.12
2023-04-18T12:19:00.881Z,21.54
2023-04-18T12:22:16.721Z,21.17
2023-04-18T12:25:29.687Z,21.68
2023-04-18T12:28:44.686Z,21.63
2023-04-18T12:31:57.523Z,21.73
2023-04-18T12:35:09.947Z,21.05
2023-04-18T12:38:23.378Z,21.09
2023-04-18T12:41:35.749Z,20.80
2023-04-18T12:44:48.373Z,21.02
2023-04-18T12:48:00.811Z,20.93
2023-04-18T12:51:13.579Z,20.77
2023-04-18T12:54:26.098Z,20.65
2023-04-18T12:57:40.061Z,20.57
2023-04-18T13:00:52.518Z,20.47
2023-04-18T13:04:12.300Z,20.36
2023-04-18T13:07:25.679Z,20.47
2023-04-18T13:10:38.391Z,21.13
2023-04-18T13:13:51.091Z,21.21
2023-04-18T13:17:03.791Z,21.21
2023-04-18T13:20:16.496Z,20.96
2023-04-18T13:23:29.112Z,20.41
2023-04-18T13:26:41.711Z,20.62
2023-04-18T13:29:55.161Z,20.47
2023-04-18T13:33:07.609Z,20.74
2023-04-18T13:36:20.686Z,20.65
2023-04-18T13:39:33.736Z,20.77
2023-04-18T13:42:46.334Z,21.53
2023-04-18T13:45:58.779Z,21.58
2023-04-18T13:49:11.570Z,21.40
2023-04-18T13:52:23.966Z,21.23
2023-04-18T13:55:36.894Z,20.78
2023-04-18T13:58:49.230Z,20.24
2023-04-18T14:02:02.050Z,19.83
2023-04-18T14:05:14.713Z,20.00
2023-04-18T14:08:27.095Z,20.15
2023-04-18T14:11:40.725Z,20.29
2023-04-18T14:14:53.115Z,20.59
2023-04-18T14:18:06.520Z,20.82
2023-04-18T14:21:18.943Z,21.11
2023-04-18T14:24:31.614Z,21.26
2023-04-18T14:27:47.354Z,21.37
2023-04-18T14:31:02.206Z,21.87
2023-04-18T14:34:14.740Z,21.97
2023-04-18T14:37:27.419Z,22.22
2023-04-18T14:40:39.841Z,22.15
2023-04-18T14:43:52.578Z,22.24
2023-04-18T14:47:05.098Z,22.24
2023-04-18T14:50:17.973Z,22.39
2023-04-18T14:53:30.491Z,22.54
2023-04-18T14:56:43.136Z,22.08
2023-04-18T14:59:55.559Z,22.48
2023-04-18T15:03:11.214Z,22.36
2023-04-18T15:06:23.945Z,22.41
2023-04-18T15:09:37.415Z,22.33
2023-04-18T15:12:51.149Z,21.91
2023-04-18T15:16:03.971Z,22.22
2023-04-18T15:19:16.364Z,22.52
2023-04-18T15:22:31.812Z,22.67
2023-04-18T15:25:44.557Z,23.01
2023-04-18T15:28:57.180Z,23.28
2023-04-18T15:32:10.225Z,23.18
2023-04-18T15:35:23.079Z,23.43
2023-04-18T15:38:35.570Z,23.10
2023-04-18T15:41:48.213Z,23.01
2023-04-18T15:45:00.630Z,22.93
2023-04-18T15:48:13.317Z,23.07
2023-04-18T15:51:30.297Z,22.64
2023-04-18T15:54:43.042Z,22.85
2023-04-18T15:57:55.616Z,22.84
2023-04-18T16:01:08.452Z,23.26
2023-04-18T16:04:21.334Z,22.91
2023-04-18T16:07:33.716Z,23.14
2023-04-18T16:10:46.401Z,22.75
2023-04-18T16:13:58.788Z,22.49
2023-04-18T16:17:11.408Z,22.61
2023-04-18T16:20:23.737Z,22.51
2023-04-18T16:23:36.376Z,22.49
2023-04-18T16:26:48.824Z,21.99
2023-04-18T16:30:01.508Z,21.48
2023-04-18T16:33:14.112Z,21.23
2023-04-18T16:36:26.953Z,21.16
2023-04-18T16:39:39.432Z,20.57
2023-04-18T16:42:52.797Z,19.98
2023-04-18T16:46:05.620Z,19.47
2023-04-18T16:49:19.098Z,19.52
2023-04-18T16:52:31.583Z,19.40
2023-04-18T16:55:44.265Z,19.26
2023-04-18T16:58:56.558Z,19.02
2023-04-18T17:02:09.315Z,18.75
2023-04-18T17:05:23.201Z,18.44
2023-04-18T17:08:36.051Z,18.37
2023-04-18T17:11:48.497Z,18.08
2023-04-18T17:15:01.092Z,17.97
2023-04-18T17:18:13.578Z,17.67
2023-04-18T17:21:27.405Z,17.39
2023-04-18T17:24:39.718Z,17.08
2023-04-18T17:27:52.390Z,16.83
2023-04-18T17:31:04.884Z,16.65
2023-04-18T17:34:17.583Z,16.60
2023-04-18T17:37:30.741Z,16.53
2023-04-18T17:40:44.392Z,16.39
2023-04-18T17:43:58.132Z,16.33
2023-04-18T17:47:10.906Z,16.44
2023-04-18T17:50:24.349Z,16.24
2023-04-18T17:53:37.026Z,16.25
2023-04-18T17:56:50.386Z,15.85
2023-04-18T18:00:07.278Z,15.81
2023-04-18T18:03:24.692Z,15.65
2023-04-18T18:06:37.489Z,15.74
2023-04-18T18:09:49.871Z,15.73
2023-04-18T18:13:02.611Z,15.68
2023-04-18T18:16:14.980Z,15.75
2023-04-18T18:19:27.741Z,15.56
2023-04-18T18:22:40.531Z,15.27
2023-04-18T18:25:53.144Z,15.21
2023-04-18T18:29:09.410Z,15.05
2023-04-18T18:32:22.247Z,15.15
2023-04-18T18:35:35.063Z,14.94
2023-04-18T18:38:47.775Z,15.19
2023-04-18T18:42:00.265Z,15.21
2023-04-18T18:45:13.374Z,15.23
2023-04-18T18:48:27.563Z,15.48
2023-04-18T18:51:41.016Z,15.43
2023-04-18T18:54:53.484Z,15.42
2023-04-18T18:58:08.038Z,15.48
2023-04-18T19:01:20.783Z,15.43
2023-04-18T19:04:33.942Z,15.49
2023-04-18T19:07:46.411Z,15.45
2023-04-18T19:10:59.025Z,15.44
2023-04-18T19:14:11.354Z,15.36
2023-04-18T19:17:24.874Z,15.16
2023-04-18T19:20:39.007Z,15.19
2023-04-18T19:23:51.633Z,15.25
2023-04-18T19:27:04.082Z,15.18
2023-04-18T19:30:16.843Z,15.01
2023-04-18T19:33:29.409Z,15.16
2023-04-18T19:36:42.091Z,14.86
2023-04-18T19:39:54.447Z,15.01
2023-04-18T19:43:07.140Z,14.99
2023-04-18T19:46:19.578Z,14.95
2023-04-18T19:49:32.227Z,14.99
2023-04-18T19:52:44.546Z,14.87
2023-04-18T19:55:57.321Z,14.90
2023-04-18T19:59:09.705Z,14.94
2023-04-18T20:02:22.451Z,14.85
2023-04-18T20:05:35.200Z,14.90
2023-04-18T20:08:47.683Z,14.76
2023-04-18T20:12:02.134Z,14.66
2023-04-18T20:15:14.550Z,14.34
2023-04-18T20:18:27.252Z,14.47
2023-04-18T20:21:39.592Z,14.47
2023-04-18T20:24:52.956Z,14.57
2023-04-18T20:28:05.418Z,14.40
2023-04-18T20:31:20.947Z,14.47
2023-04-18T20:34:33.413Z,14.41
2023-04-18T20:37:46.180Z,14.45
2023-04-18T20:40:58.873Z,14.43
2023-04-18T20:44:13.736Z,14.30
2023-04-18T20:47:26.971Z,14.49
2023-04-18T20:50:40.206Z,14.36
2023-04-18T20:53:52.695Z,14.23
2023-04-18T20:57:05.329Z,14.17
2023-04-18T21:00:18.497Z,14.28
2023-04-18T21:03:31.276Z,14.16
2023-04-18T21:06:43.801Z,14.30
2023-04-18T21:09:59.275Z,14.50
2023-04-18T21:13:12.702Z,14.30
2023-04-18T21:16:25.864Z,14.23
2023-04-18T21:19:38.292Z,14.25
2023-04-18T21:22:50.917Z,14.33
2023-04-18T21:26:03.378Z,14.17
2023-04-18T21:29:16.129Z,14.28
2023-04-18T21:32:28.716Z,14.16
2023-04-18T21:35:41.337Z,14.13
2023-04-18T21:38:54.414Z,14.00
2023-04-18T21:42:07.006Z,13.94
2023-04-18T21:45:19.336Z,13.94
2023-04-18T21:48:31.973Z,13.73
2023-04-18T21:51:44.969Z,13.61
2023-04-18T21:54:59.226Z,13.67
2023-04-18T21:58:11.561Z,13.64
2023-04-18T22:01:24.297Z,13.77
2023-04-18T22:04:38.214Z,13.72
2023-04-18T22:07:58.045Z,13.68
2023-04-18T22:11:11.865Z,13.74
2023-04-18T22:14:24.804Z,13.54
2023-04-18T22:17:38.047Z,13.59
2023-04-18T22:20:50.460Z,13.43
2023-04-18T22:24:03.291Z,13.41
2023-04-18T22:27:15.663Z,13.41
2023-04-18T22:30:28.393Z,13.54
2023-04-18T22:33:40.790Z,13.36
2023-04-18T22:36:53.782Z,13.47
2023-04-18T22:40:06.839Z,13.33
2023-04-18T22:43:22.964Z,13.33
2023-04-18T22:46:38.422Z,13.22
2023-04-18T22:49:51.800Z,13.39
2023-04-18T22:53:04.284Z,13.25
2023-04-18T22:56:16.935Z,13.39
2023-04-18T22:59:29.243Z,13.28
2023-04-18T23:02:42.093Z,13.42
2023-04-18T23:05:54.604Z,13.26
2023-04-18T23:09:07.809Z,13.38
2023-04-18T23:12:20.146Z,13.25
2023-04-18T23:15:32.910Z,13.18
2023-04-18T23:18:45.368Z,13.34
2023-04-18T23:21:57.962Z,13.27
2023-04-18T23:25:10.352Z,13.14
2023-04-18T23:28:23.263Z,13.07
2023-04-18T23:31:35.739Z,13.03
2023-04-18T23:34:48.383Z,13.04
2023-04-18T23:38:00.756Z,12.97
2023-04-18T23:41:13.402Z,12.96
2023-04-18T23:44:25.789Z,12.88
2023-04-18T23:47:38.422Z,12.94
2023-04-18T23:50:52.507Z,12.85
2023-04-18T23:54:05.178Z,12.79
2023-04-18T23:57:17.562Z,12.74
